sensor_id;sensor_type;location;lat;lon;timestamp;temperature;humidity
51884;DHT22;37915;53.254;6.598;2022-10-16T00:01:35;12.50;99.90
51884;DHT22;37915;53.254;6.598;2022-10-16T00:04:01;12.50;99.90
51884;DHT22;37915;53.254;6.598;2022-10-16T00:06:28;12.60;99.90
51884;DHT22;37915;53.254;6.598;2022-10-16T00:08:54;12.50;99.90
51884;DHT22;37915;53.254;6.598;2022-10-16T00:11:25;12.60;99.90
51884;DHT22;37915;53.254;6.598;2022-10-16T00:13:55;12.50;99.90
51884;DHT22;37915;53.254;6.598;2022-10-16T00:16:22;12.50;99.90
51884;DHT22;37915;53.254;6.598;2022-10-16T00:18:48;12.50;99.90
51884;DHT22;37915;53.254;6.598;2022-10-16T00:21:20;12.50;99.90
51884;DHT22;37915;53.254;6.598;2022-10-16T00:23:46;12.50;99.90
51884;DHT22;37915;53.254;6.598;2022-10-16T00:26:15;12.50;99.90
51884;DHT22;37915;53.254;6.598;2022-10-16T00:28:41;12.50;99.90
51884;DHT22;37915;53.254;6.598;2022-10-16T00:31:09;12.50;99.90
51884;DHT22;37915;53.254;6.598;2022-10-16T00:33:36;12.50;99.90
51884;DHT22;37915;53.254;6.598;2022-10-16T00:36:03;12.50;99.90
51884;DHT22;37915;53.254;6.598;2022-10-16T00:38:30;12.50;99.90
51884;DHT22;37915;53.254;6.598;2022-10-16T00:40:56;12.50;99.90
51884;DHT22;37915;53.254;6.598;2022-10-16T00:43:55;12.50;99.90
51884;DHT22;37915;53.254;6.598;2022-10-16T00:46:23;12.50;99.90
51884;DHT22;37915;53.254;6.598;2022-10-16T00:49:05;12.50;99.90
51884;DHT22;37915;53.254;6.598;2022-10-16T00:51:40;12.50;99.90
51884;DHT22;37915;53.254;6.598;2022-10-16T00:54:13;12.50;99.90
51884;DHT22;37915;53.254;6.598;2022-10-16T00:56:40;12.50;99.90
51884;DHT22;37915;53.254;6.598;2022-10-16T00:59:18;12.50;99.90
51884;DHT22;37915;53.254;6.598;2022-10-16T01:01:44;12.50;99.90
51884;DHT22;37915;53.254;6.598;2022-10-16T01:04:10;12.50;99.90
51884;DHT22;37915;53.254;6.598;2022-10-16T01:06:42;12.50;99.90
51884;DHT22;37915;53.254;6.598;2022-10-16T01:14:52;12.50;99.90
51884;DHT22;37915;53.254;6.598;2022-10-16T01:17:26;12.50;99.90
51884;DHT22;37915;53.254;6.598;2022-10-16T01:20:14;12.50;99.90
51884;DHT22;37915;53.254;6.598;2022-10-16T01:25:29;12.60;99.90
51884;DHT22;37915;53.254;6.598;2022-10-16T01:27:57;12.60;99.90
51884;DHT22;37915;53.254;6.598;2022-10-16T01:30:30;12.50;99.90
51884;DHT22;37915;53.254;6.598;2022-10-16T01:33:23;12.50;99.90
51884;DHT22;37915;53.254;6.598;2022-10-16T01:35:56;12.50;99.90
51884;DHT22;37915;53.254;6.598;2022-10-16T01:38:36;12.50;99.90
51884;DHT22;37915;53.254;6.598;2022-10-16T01:41:24;12.50;99.90
51884;DHT22;37915;53.254;6.598;2022-10-16T01:43:58;12.50;99.90
51884;DHT22;37915;53.254;6.598;2022-10-16T01:46:27;12.50;99.90
51884;DHT22;37915;53.254;6.598;2022-10-16T01:48:54;12.50;99.90
51884;DHT22;37915;53.254;6.598;2022-10-16T01:51:21;12.50;99.90
51884;DHT22;37915;53.254;6.598;2022-10-16T01:53:52;12.60;99.90
51884;DHT22;37915;53.254;6.598;2022-10-16T01:56:19;12.60;99.90
51884;DHT22;37915;53.254;6.598;2022-10-16T01:58:56;12.50;99.90
51884;DHT22;37915;53.254;6.598;2022-10-16T02:01:25;12.60;99.90
51884;DHT22;37915;53.254;6.598;2022-10-16T02:03:55;12.60;99.90
51884;DHT22;37915;53.254;6.598;2022-10-16T02:06:21;12.60;99.90
51884;DHT22;37915;53.254;6.598;2022-10-16T02:08:48;12.60;99.90
51884;DHT22;37915;53.254;6.598;2022-10-16T02:11:13;12.60;99.90
51884;DHT22;37915;53.254;6.598;2022-10-16T02:13:50;12.60;99.90
51884;DHT22;37915;53.254;6.598;2022-10-16T02:16:18;12.60;99.90
51884;DHT22;37915;53.254;6.598;2022-10-16T02:18:44;12.70;99.90
51884;DHT22;37915;53.254;6.598;2022-10-16T02:21:23;12.60;99.90
51884;DHT22;37915;53.254;6.598;2022-10-16T02:26:27;12.70;99.90
51884;DHT22;37915;53.254;6.598;2022-10-16T02:28:56;12.70;99.90
51884;DHT22;37915;53.254;6.598;2022-10-16T02:31:28;12.70;99.90
51884;DHT22;37915;53.254;6.598;2022-10-16T02:33:58;12.70;99.90
51884;DHT22;37915;53.254;6.598;2022-10-16T02:36:26;12.70;99.90
51884;DHT22;37915;53.254;6.598;2022-10-16T02:38:52;12.70;99.90
51884;DHT22;37915;53.254;6.598;2022-10-16T02:41:20;12.70;99.90
51884;DHT22;37915;53.254;6.598;2022-10-16T02:43:45;12.70;99.90
51884;DHT22;37915;53.254;6.598;2022-10-16T02:46:11;12.70;99.90
51884;DHT22;37915;53.254;6.598;2022-10-16T02:48:37;12.70;99.90
51884;DHT22;37915;53.254;6.598;2022-10-16T02:51:03;12.70;99.90
51884;DHT22;37915;53.254;6.598;2022-10-16T02:53:28;12.70;99.90
51884;DHT22;37915;53.254;6.598;2022-10-16T02:55:54;12.70;99.90
51884;DHT22;37915;53.254;6.598;2022-10-16T02:58:19;12.70;99.90
51884;DHT22;37915;53.254;6.598;2022-10-16T03:00:45;12.70;99.90
51884;DHT22;37915;53.254;6.598;2022-10-16T03:03:11;12.70;99.90
51884;DHT22;37915;53.254;6.598;2022-10-16T03:05:37;12.70;99.90
51884;DHT22;37915;53.254;6.598;2022-10-16T03:08:02;12.70;99.90
51884;DHT22;37915;53.254;6.598;2022-10-16T03:10:28;12.70;99.90
51884;DHT22;37915;53.254;6.598;2022-10-16T03:12:54;12.70;99.90
51884;DHT22;37915;53.254;6.598;2022-10-16T03:15:19;12.70;99.90
51884;DHT22;37915;53.254;6.598;2022-10-16T03:17:45;12.70;99.90
51884;DHT22;37915;53.254;6.598;2022-10-16T03:20:11;12.80;99.90
51884;DHT22;37915;53.254;6.598;2022-10-16T03:22:36;12.80;99.90
51884;DHT22;37915;53.254;6.598;2022-10-16T03:25:02;12.80;99.90
51884;DHT22;37915;53.254;6.598;2022-10-16T03:27:28;12.80;99.90
51884;DHT22;37915;53.254;6.598;2022-10-16T03:29:54;12.80;99.90
51884;DHT22;37915;53.254;6.598;2022-10-16T03:32:19;12.80;99.90
51884;DHT22;37915;53.254;6.598;2022-10-16T03:34:45;12.80;99.90
51884;DHT22;37915;53.254;6.598;2022-10-16T03:37:11;12.80;99.90
51884;DHT22;37915;53.254;6.598;2022-10-16T03:39:37;12.80;99.90
51884;DHT22;37915;53.254;6.598;2022-10-16T03:42:02;12.80;99.90
51884;DHT22;37915;53.254;6.598;2022-10-16T03:44:28;12.80;99.90
51884;DHT22;37915;53.254;6.598;2022-10-16T03:46:54;12.80;99.90
51884;DHT22;37915;53.254;6.598;2022-10-16T03:49:19;12.80;99.90
51884;DHT22;37915;53.254;6.598;2022-10-16T03:51:45;12.80;99.90
51884;DHT22;37915;53.254;6.598;2022-10-16T03:54:11;12.80;99.90
51884;DHT22;37915;53.254;6.598;2022-10-16T03:56:37;12.70;99.90
51884;DHT22;37915;53.254;6.598;2022-10-16T03:59:02;12.70;99.90
51884;DHT22;37915;53.254;6.598;2022-10-16T04:01:28;12.70;99.90
51884;DHT22;37915;53.254;6.598;2022-10-16T04:03:54;12.70;99.90
51884;DHT22;37915;53.254;6.598;2022-10-16T04:06:19;12.70;99.90
51884;DHT22;37915;53.254;6.598;2022-10-16T04:08:45;12.70;99.90
51884;DHT22;37915;53.254;6.598;2022-10-16T04:11:11;12.70;99.90
51884;DHT22;37915;53.254;6.598;2022-10-16T04:13:37;12.60;99.90
51884;DHT22;37915;53.254;6.598;2022-10-16T04:16:03;12.60;99.90
51884;DHT22;37915;53.254;6.598;2022-10-16T04:18:29;12.60;99.90
51884;DHT22;37915;53.254;6.598;2022-10-16T04:20:54;12.50;99.90
51884;DHT22;37915;53.254;6.598;2022-10-16T04:23:20;12.50;99.90
51884;DHT22;37915;53.254;6.598;2022-10-16T04:25:46;12.40;99.90
51884;DHT22;37915;53.254;6.598;2022-10-16T04:28:12;12.50;99.90
51884;DHT22;37915;53.254;6.598;2022-10-16T04:30:38;12.50;99.90
51884;DHT22;37915;53.254;6.598;2022-10-16T04:33:04;12.50;99.90
51884;DHT22;37915;53.254;6.598;2022-10-16T04:35:30;12.50;99.90
51884;DHT22;37915;53.254;6.598;2022-10-16T04:37:57;12.40;99.90
51884;DHT22;37915;53.254;6.598;2022-10-16T04:40:23;12.40;99.90
51884;DHT22;37915;53.254;6.598;2022-10-16T04:42:49;12.40;99.90
51884;DHT22;37915;53.254;6.598;2022-10-16T04:45:15;12.40;99.90
51884;DHT22;37915;53.254;6.598;2022-10-16T04:47:40;12.50;99.90
51884;DHT22;37915;53.254;6.598;2022-10-16T04:50:06;12.50;99.90
51884;DHT22;37915;53.254;6.598;2022-10-16T04:52:32;12.50;99.90
51884;DHT22;37915;53.254;6.598;2022-10-16T04:54:58;12.50;99.90
51884;DHT22;37915;53.254;6.598;2022-10-16T04:57:27;12.50;99.90
51884;DHT22;37915;53.254;6.598;2022-10-16T04:59:53;12.60;99.90
51884;DHT22;37915;53.254;6.598;2022-10-16T05:02:18;12.60;99.90
51884;DHT22;37915;53.254;6.598;2022-10-16T05:04:44;12.60;99.90
51884;DHT22;37915;53.254;6.598;2022-10-16T05:07:10;12.60;99.90
51884;DHT22;37915;53.254;6.598;2022-10-16T05:09:35;12.60;99.90
51884;DHT22;37915;53.254;6.598;2022-10-16T05:12:01;12.60;99.90
51884;DHT22;37915;53.254;6.598;2022-10-16T05:14:28;12.60;99.90
51884;DHT22;37915;53.254;6.598;2022-10-16T05:16:53;12.60;99.90
51884;DHT22;37915;53.254;6.598;2022-10-16T05:19:19;12.60;99.90
51884;DHT22;37915;53.254;6.598;2022-10-16T05:21:45;12.60;99.90
51884;DHT22;37915;53.254;6.598;2022-10-16T05:24:10;12.60;99.90
51884;DHT22;37915;53.254;6.598;2022-10-16T05:26:36;12.60;99.90
51884;DHT22;37915;53.254;6.598;2022-10-16T05:29:02;12.60;99.90
51884;DHT22;37915;53.254;6.598;2022-10-16T05:31:28;12.60;99.90
51884;DHT22;37915;53.254;6.598;2022-10-16T05:34:01;12.60;99.90
51884;DHT22;37915;53.254;6.598;2022-10-16T05:36:26;12.60;99.90
51884;DHT22;37915;53.254;6.598;2022-10-16T05:38:52;12.60;99.90
51884;DHT22;37915;53.254;6.598;2022-10-16T05:41:18;12.60;99.90
51884;DHT22;37915;53.254;6.598;2022-10-16T05:43:49;12.60;99.90
51884;DHT22;37915;53.254;6.598;2022-10-16T05:46:14;12.60;99.90
51884;DHT22;37915;53.254;6.598;2022-10-16T05:48:41;12.50;99.90
51884;DHT22;37915;53.254;6.598;2022-10-16T05:51:08;12.50;99.90
51884;DHT22;37915;53.254;6.598;2022-10-16T05:53:36;12.60;99.90
51884;DHT22;37915;53.254;6.598;2022-10-16T05:56:02;12.50;99.90
51884;DHT22;37915;53.254;6.598;2022-10-16T05:58:35;12.50;99.90
51884;DHT22;37915;53.254;6.598;2022-10-16T06:01:20;12.60;99.90
51884;DHT22;37915;53.254;6.598;2022-10-16T06:03:52;12.60;99.90
51884;DHT22;37915;53.254;6.598;2022-10-16T06:06:21;12.50;99.90
51884;DHT22;37915;53.254;6.598;2022-10-16T06:08:48;12.50;99.90
51884;DHT22;37915;53.254;6.598;2022-10-16T06:11:16;12.60;99.90
51884;DHT22;37915;53.254;6.598;2022-10-16T06:13:42;12.50;99.90
51884;DHT22;37915;53.254;6.598;2022-10-16T06:16:09;12.50;99.90
51884;DHT22;37915;53.254;6.598;2022-10-16T06:18:35;12.50;99.90
51884;DHT22;37915;53.254;6.598;2022-10-16T06:21:08;12.50;99.90
51884;DHT22;37915;53.254;6.598;2022-10-16T06:23:34;12.50;99.90
51884;DHT22;37915;53.254;6.598;2022-10-16T06:28:32;12.50;99.90
51884;DHT22;37915;53.254;6.598;2022-10-16T06:31:02;12.50;99.90
51884;DHT22;37915;53.254;6.598;2022-10-16T06:33:28;12.60;99.90
51884;DHT22;37915;53.254;6.598;2022-10-16T06:36:07;12.60;99.90
51884;DHT22;37915;53.254;6.598;2022-10-16T06:38:34;12.60;99.90
51884;DHT22;37915;53.254;6.598;2022-10-16T06:40:59;12.60;99.90
51884;DHT22;37915;53.254;6.598;2022-10-16T06:43:25;12.60;99.90
51884;DHT22;37915;53.254;6.598;2022-10-16T06:45:55;12.60;99.90
51884;DHT22;37915;53.254;6.598;2022-10-16T06:48:21;12.70;99.90
51884;DHT22;37915;53.254;6.598;2022-10-16T06:51:09;12.70;99.90
51884;DHT22;37915;53.254;6.598;2022-10-16T06:53:37;12.70;99.90
51884;DHT22;37915;53.254;6.598;2022-10-16T06:56:23;12.70;99.90
51884;DHT22;37915;53.254;6.598;2022-10-16T06:58:50;12.70;99.90
51884;DHT22;37915;53.254;6.598;2022-10-16T07:01:17;12.70;99.90
51884;DHT22;37915;53.254;6.598;2022-10-16T07:03:44;12.80;99.90
51884;DHT22;37915;53.254;6.598;2022-10-16T07:06:12;12.80;99.90
51884;DHT22;37915;53.254;6.598;2022-10-16T07:08:40;12.80;99.90
51884;DHT22;37915;53.254;6.598;2022-10-16T07:11:11;12.80;99.90
51884;DHT22;37915;53.254;6.598;2022-10-16T07:13:38;12.80;99.90
51884;DHT22;37915;53.254;6.598;2022-10-16T07:16:10;12.90;99.90
51884;DHT22;37915;53.254;6.598;2022-10-16T07:18:36;12.90;99.90
51884;DHT22;37915;53.254;6.598;2022-10-16T07:21:15;12.90;99.90
51884;DHT22;37915;53.254;6.598;2022-10-16T07:23:41;13.00;99.90
51884;DHT22;37915;53.254;6.598;2022-10-16T07:26:08;13.00;99.90
51884;DHT22;37915;53.254;6.598;2022-10-16T07:28:34;13.00;99.90
51884;DHT22;37915;53.254;6.598;2022-10-16T07:31:05;13.00;99.90
51884;DHT22;37915;53.254;6.598;2022-10-16T07:33:32;13.10;99.90
51884;DHT22;37915;53.254;6.598;2022-10-16T07:35:58;13.10;99.90
51884;DHT22;37915;53.254;6.598;2022-10-16T07:38:24;13.10;99.90
51884;DHT22;37915;53.254;6.598;2022-10-16T07:40:57;13.10;99.90
51884;DHT22;37915;53.254;6.598;2022-10-16T07:43:23;13.10;99.90
51884;DHT22;37915;53.254;6.598;2022-10-16T07:45:49;13.10;99.90
51884;DHT22;37915;53.254;6.598;2022-10-16T07:48:16;13.10;99.90
51884;DHT22;37915;53.254;6.598;2022-10-16T07:50:43;13.10;99.90
51884;DHT22;37915;53.254;6.598;2022-10-16T07:53:09;13.10;99.90
51884;DHT22;37915;53.254;6.598;2022-10-16T07:55:35;13.10;99.90
51884;DHT22;37915;53.254;6.598;2022-10-16T07:58:01;13.10;99.90
51884;DHT22;37915;53.254;6.598;2022-10-16T08:00:26;13.10;99.90
51884;DHT22;37915;53.254;6.598;2022-10-16T08:02:52;13.10;99.90
51884;DHT22;37915;53.254;6.598;2022-10-16T08:05:18;13.10;99.90
51884;DHT22;37915;53.254;6.598;2022-10-16T08:07:48;13.10;99.90
51884;DHT22;37915;53.254;6.598;2022-10-16T08:10:17;13.10;99.90
51884;DHT22;37915;53.254;6.598;2022-10-16T08:12:42;13.10;99.90
51884;DHT22;37915;53.254;6.598;2022-10-16T08:15:09;13.10;99.90
51884;DHT22;37915;53.254;6.598;2022-10-16T08:17:34;13.10;99.90
51884;DHT22;37915;53.254;6.598;2022-10-16T08:20:00;13.10;99.90
51884;DHT22;37915;53.254;6.598;2022-10-16T08:22:27;13.10;99.90
51884;DHT22;37915;53.254;6.598;2022-10-16T08:24:53;13.20;99.90
51884;DHT22;37915;53.254;6.598;2022-10-16T08:27:19;13.30;99.90
51884;DHT22;37915;53.254;6.598;2022-10-16T08:29:45;13.30;99.90
51884;DHT22;37915;53.254;6.598;2022-10-16T08:32:10;13.40;99.90
51884;DHT22;37915;53.254;6.598;2022-10-16T08:34:36;13.50;99.90
51884;DHT22;37915;53.254;6.598;2022-10-16T08:37:02;13.50;99.90
51884;DHT22;37915;53.254;6.598;2022-10-16T08:39:28;13.60;99.90
51884;DHT22;37915;53.254;6.598;2022-10-16T08:50:11;14.00;99.90
51884;DHT22;37915;53.254;6.598;2022-10-16T08:52:41;14.00;99.90
51884;DHT22;37915;53.254;6.598;2022-10-16T08:56:02;14.00;99.90
51884;DHT22;37915;53.254;6.598;2022-10-16T08:58:17;14.10;99.90
51884;DHT22;37915;53.254;6.598;2022-10-16T09:00:55;14.20;99.90
51884;DHT22;37915;53.254;6.598;2022-10-16T09:09:08;14.30;99.90
51884;DHT22;37915;53.254;6.598;2022-10-16T09:17:36;14.40;99.90
51884;DHT22;37915;53.254;6.598;2022-10-16T09:25:30;14.50;99.90
51884;DHT22;37915;53.254;6.598;2022-10-16T09:27:56;14.50;99.90
51884;DHT22;37915;53.254;6.598;2022-10-16T09:30:22;14.50;99.90
51884;DHT22;37915;53.254;6.598;2022-10-16T09:32:52;14.60;99.90
51884;DHT22;37915;53.254;6.598;2022-10-16T09:35:28;14.60;99.90
51884;DHT22;37915;53.254;6.598;2022-10-16T09:37:56;14.70;99.90
51884;DHT22;37915;53.254;6.598;2022-10-16T09:40:32;14.90;99.90
51884;DHT22;37915;53.254;6.598;2022-10-16T09:45:59;15.20;99.90
51884;DHT22;37915;53.254;6.598;2022-10-16T09:48:30;15.20;99.90
51884;DHT22;37915;53.254;6.598;2022-10-16T09:51:02;15.30;99.90
51884;DHT22;37915;53.254;6.598;2022-10-16T09:53:42;15.40;99.90
51884;DHT22;37915;53.254;6.598;2022-10-16T09:56:20;15.50;99.90
51884;DHT22;37915;53.254;6.598;2022-10-16T09:58:51;15.50;99.90
51884;DHT22;37915;53.254;6.598;2022-10-16T10:01:18;15.40;99.90
51884;DHT22;37915;53.254;6.598;2022-10-16T10:03:44;15.30;99.90
51884;DHT22;37915;53.254;6.598;2022-10-16T10:06:18;15.30;99.90
51884;DHT22;37915;53.254;6.598;2022-10-16T10:11:35;15.60;99.90
51884;DHT22;37915;53.254;6.598;2022-10-16T10:16:46;15.80;99.90
51884;DHT22;37915;53.254;6.598;2022-10-16T10:19:17;16.00;99.90
51884;DHT22;37915;53.254;6.598;2022-10-16T10:21:44;16.10;99.90
51884;DHT22;37915;53.254;6.598;2022-10-16T10:24:11;16.20;99.90
51884;DHT22;37915;53.254;6.598;2022-10-16T10:26:39;16.30;99.90
51884;DHT22;37915;53.254;6.598;2022-10-16T10:29:26;16.40;99.90
51884;DHT22;37915;53.254;6.598;2022-10-16T10:45:47;16.00;99.90
51884;DHT22;37915;53.254;6.598;2022-10-16T10:51:20;15.90;99.90
51884;DHT22;37915;53.254;6.598;2022-10-16T10:54:04;15.90;99.90
51884;DHT22;37915;53.254;6.598;2022-10-16T10:57:02;15.80;99.90
51884;DHT22;37915;53.254;6.598;2022-10-16T11:02:34;15.90;99.90
51884;DHT22;37915;53.254;6.598;2022-10-16T11:07:58;15.90;99.90
51884;DHT22;37915;53.254;6.598;2022-10-16T11:10:45;15.90;99.90
51884;DHT22;37915;53.254;6.598;2022-10-16T11:16:11;15.80;99.90
51884;DHT22;37915;53.254;6.598;2022-10-16T11:21:56;15.70;99.90
51884;DHT22;37915;53.254;6.598;2022-10-16T11:24:47;15.60;99.90
51884;DHT22;37915;53.254;6.598;2022-10-16T11:27:17;15.60;99.90
51884;DHT22;37915;53.254;6.598;2022-10-16T11:29:58;15.70;99.90
51884;DHT22;37915;53.254;6.598;2022-10-16T11:32:32;15.90;99.90
51884;DHT22;37915;53.254;6.598;2022-10-16T11:35:14;16.10;99.90
51884;DHT22;37915;53.254;6.598;2022-10-16T11:37:44;16.10;99.90
51884;DHT22;37915;53.254;6.598;2022-10-16T11:40:33;16.30;99.90
51884;DHT22;37915;53.254;6.598;2022-10-16T11:43:22;16.40;99.90
51884;DHT22;37915;53.254;6.598;2022-10-16T11:45:52;16.40;99.90
51884;DHT22;37915;53.254;6.598;2022-10-16T11:48:32;16.40;99.90
51884;DHT22;37915;53.254;6.598;2022-10-16T11:54:01;16.60;99.90
51884;DHT22;37915;53.254;6.598;2022-10-16T11:56:30;16.60;99.90
51884;DHT22;37915;53.254;6.598;2022-10-16T11:59:03;16.70;99.90
51884;DHT22;37915;53.254;6.598;2022-10-16T12:01:53;16.60;99.90
51884;DHT22;37915;53.254;6.598;2022-10-16T12:04:42;16.50;99.90
51884;DHT22;37915;53.254;6.598;2022-10-16T12:07:17;16.30;99.90
51884;DHT22;37915;53.254;6.598;2022-10-16T12:09:44;16.20;99.90
51884;DHT22;37915;53.254;6.598;2022-10-16T12:12:28;16.10;99.90
51884;DHT22;37915;53.254;6.598;2022-10-16T12:15:20;16.00;99.90
51884;DHT22;37915;53.254;6.598;2022-10-16T12:17:46;16.00;99.90
51884;DHT22;37915;53.254;6.598;2022-10-16T12:23:00;16.00;99.90
51884;DHT22;37915;53.254;6.598;2022-10-16T12:25:30;16.00;99.90
51884;DHT22;37915;53.254;6.598;2022-10-16T12:28:00;15.90;99.90
51884;DHT22;37915;53.254;6.598;2022-10-16T12:30:29;15.90;99.90
51884;DHT22;37915;53.254;6.598;2022-10-16T12:33:15;15.80;99.90
51884;DHT22;37915;53.254;6.598;2022-10-16T12:35:45;15.80;99.90
51884;DHT22;37915;53.254;6.598;2022-10-16T12:38:26;15.80;99.90
51884;DHT22;37915;53.254;6.598;2022-10-16T12:41:07;15.70;99.90
51884;DHT22;37915;53.254;6.598;2022-10-16T12:43:46;15.70;99.90
51884;DHT22;37915;53.254;6.598;2022-10-16T12:48:39;15.70;99.90
51884;DHT22;37915;53.254;6.598;2022-10-16T12:51:23;15.60;99.90
51884;DHT22;37915;53.254;6.598;2022-10-16T12:54:28;15.70;99.90
51884;DHT22;37915;53.254;6.598;2022-10-16T13:14:11;15.80;99.90
51884;DHT22;37915;53.254;6.598;2022-10-16T13:17:25;15.80;99.90
51884;DHT22;37915;53.254;6.598;2022-10-16T13:20:34;15.80;99.90
51884;DHT22;37915;53.254;6.598;2022-10-16T13:22:51;15.80;99.90
51884;DHT22;37915;53.254;6.598;2022-10-16T13:28:03;15.80;99.90
51884;DHT22;37915;53.254;6.598;2022-10-16T13:30:41;15.80;99.90
51884;DHT22;37915;53.254;6.598;2022-10-16T13:33:12;15.80;99.90
51884;DHT22;37915;53.254;6.598;2022-10-16T13:35:50;15.80;99.90
51884;DHT22;37915;53.254;6.598;2022-10-16T13:38:19;15.90;99.90
51884;DHT22;37915;53.254;6.598;2022-10-16T13:40:49;15.90;99.90
51884;DHT22;37915;53.254;6.598;2022-10-16T13:43:18;15.80;99.90
51884;DHT22;37915;53.254;6.598;2022-10-16T13:45:53;15.80;99.90
51884;DHT22;37915;53.254;6.598;2022-10-16T13:48:19;15.80;99.90
51884;DHT22;37915;53.254;6.598;2022-10-16T13:50:45;15.90;99.90
51884;DHT22;37915;53.254;6.598;2022-10-16T13:53:14;16.10;99.90
51884;DHT22;37915;53.254;6.598;2022-10-16T13:55:40;16.20;99.90
51884;DHT22;37915;53.254;6.598;2022-10-16T13:58:13;16.40;99.90
51884;DHT22;37915;53.254;6.598;2022-10-16T14:00:41;16.50;99.90
51884;DHT22;37915;53.254;6.598;2022-10-16T14:03:18;16.60;99.90
51884;DHT22;37915;53.254;6.598;2022-10-16T14:05:51;16.70;99.90
51884;DHT22;37915;53.254;6.598;2022-10-16T14:08:17;16.70;99.90
51884;DHT22;37915;53.254;6.598;2022-10-16T14:10:48;16.80;99.90
51884;DHT22;37915;53.254;6.598;2022-10-16T14:13:18;16.90;99.90
51884;DHT22;37915;53.254;6.598;2022-10-16T14:15:50;16.90;99.90
51884;DHT22;37915;53.254;6.598;2022-10-16T14:18:22;17.00;99.90
51884;DHT22;37915;53.254;6.598;2022-10-16T14:20:49;17.00;99.90
51884;DHT22;37915;53.254;6.598;2022-10-16T14:23:50;17.00;99.90
51884;DHT22;37915;53.254;6.598;2022-10-16T14:26:19;17.00;99.90
51884;DHT22;37915;53.254;6.598;2022-10-16T14:28:46;17.00;99.90
51884;DHT22;37915;53.254;6.598;2022-10-16T14:31:28;17.00;99.90
51884;DHT22;37915;53.254;6.598;2022-10-16T14:33:54;17.00;99.90
51884;DHT22;37915;53.254;6.598;2022-10-16T14:36:21;16.90;99.90
51884;DHT22;37915;53.254;6.598;2022-10-16T14:38:59;16.80;99.90
51884;DHT22;37915;53.254;6.598;2022-10-16T14:41:26;16.70;99.90
51884;DHT22;37915;53.254;6.598;2022-10-16T14:43:57;16.70;99.90
51884;DHT22;37915;53.254;6.598;2022-10-16T14:46:36;16.60;99.90
51884;DHT22;37915;53.254;6.598;2022-10-16T14:51:35;16.50;99.90
51884;DHT22;37915;53.254;6.598;2022-10-16T14:54:01;16.40;99.90
51884;DHT22;37915;53.254;6.598;2022-10-16T14:56:35;16.30;99.90
51884;DHT22;37915;53.254;6.598;2022-10-16T14:59:02;16.20;99.90
51884;DHT22;37915;53.254;6.598;2022-10-16T15:01:28;16.10;99.90
51884;DHT22;37915;53.254;6.598;2022-10-16T15:03:53;16.00;99.90
51884;DHT22;37915;53.254;6.598;2022-10-16T15:06:20;15.90;99.90
51884;DHT22;37915;53.254;6.598;2022-10-16T15:08:46;15.80;99.90
51884;DHT22;37915;53.254;6.598;2022-10-16T15:11:19;15.80;99.90
51884;DHT22;37915;53.254;6.598;2022-10-16T15:13:46;15.70;99.90
51884;DHT22;37915;53.254;6.598;2022-10-16T15:16:13;15.70;99.90
51884;DHT22;37915;53.254;6.598;2022-10-16T15:18:39;15.60;99.90
51884;DHT22;37915;53.254;6.598;2022-10-16T15:21:05;15.60;99.90
51884;DHT22;37915;53.254;6.598;2022-10-16T15:23:31;15.60;99.90
51884;DHT22;37915;53.254;6.598;2022-10-16T15:25:57;15.50;99.90
51884;DHT22;37915;53.254;6.598;2022-10-16T15:28:24;15.50;99.90
51884;DHT22;37915;53.254;6.598;2022-10-16T15:30:53;15.40;99.90
51884;DHT22;37915;53.254;6.598;2022-10-16T15:33:25;15.40;99.90
51884;DHT22;37915;53.254;6.598;2022-10-16T15:35:53;15.30;99.90
51884;DHT22;37915;53.254;6.598;2022-10-16T15:38:21;15.30;99.90
51884;DHT22;37915;53.254;6.598;2022-10-16T15:40:47;15.30;99.90
51884;DHT22;37915;53.254;6.598;2022-10-16T15:43:14;15.20;99.90
51884;DHT22;37915;53.254;6.598;2022-10-16T15:45:40;15.10;99.90
51884;DHT22;37915;53.254;6.598;2022-10-16T15:48:06;15.00;99.90
51884;DHT22;37915;53.254;6.598;2022-10-16T15:50:32;14.90;99.90
51884;DHT22;37915;53.254;6.598;2022-10-16T15:52:58;14.80;99.90
51884;DHT22;37915;53.254;6.598;2022-10-16T15:55:24;14.80;99.90
51884;DHT22;37915;53.254;6.598;2022-10-16T15:57:50;14.70;99.90
51884;DHT22;37915;53.254;6.598;2022-10-16T16:00:17;14.60;99.90
51884;DHT22;37915;53.254;6.598;2022-10-16T16:02:44;14.50;99.90
51884;DHT22;37915;53.254;6.598;2022-10-16T16:05:15;14.50;99.90
51884;DHT22;37915;53.254;6.598;2022-10-16T16:07:40;14.40;99.90
51884;DHT22;37915;53.254;6.598;2022-10-16T16:10:08;14.40;99.90
51884;DHT22;37915;53.254;6.598;2022-10-16T16:12:34;14.30;99.90
51884;DHT22;37915;53.254;6.598;2022-10-16T16:15:00;14.20;99.90
51884;DHT22;37915;53.254;6.598;2022-10-16T16:17:26;14.20;99.90
51884;DHT22;37915;53.254;6.598;2022-10-16T16:19:52;14.10;99.90
51884;DHT22;37915;53.254;6.598;2022-10-16T16:22:18;14.10;99.90
51884;DHT22;37915;53.254;6.598;2022-10-16T16:24:44;14.00;99.90
51884;DHT22;37915;53.254;6.598;2022-10-16T16:27:09;13.90;99.90
51884;DHT22;37915;53.254;6.598;2022-10-16T16:29:35;13.90;99.90
51884;DHT22;37915;53.254;6.598;2022-10-16T16:32:01;13.80;99.90
51884;DHT22;37915;53.254;6.598;2022-10-16T16:34:28;13.80;99.90
51884;DHT22;37915;53.254;6.598;2022-10-16T16:36:54;13.80;99.90
51884;DHT22;37915;53.254;6.598;2022-10-16T16:39:20;13.70;99.90
51884;DHT22;37915;53.254;6.598;2022-10-16T16:41:46;13.60;99.90
51884;DHT22;37915;53.254;6.598;2022-10-16T16:44:13;13.60;99.90
51884;DHT22;37915;53.254;6.598;2022-10-16T16:46:39;13.50;99.90
51884;DHT22;37915;53.254;6.598;2022-10-16T16:49:06;13.50;99.90
51884;DHT22;37915;53.254;6.598;2022-10-16T16:51:32;13.40;99.90
51884;DHT22;37915;53.254;6.598;2022-10-16T16:53:59;13.40;99.90
51884;DHT22;37915;53.254;6.598;2022-10-16T16:56:25;13.40;99.90
51884;DHT22;37915;53.254;6.598;2022-10-16T16:58:53;13.30;99.90
51884;DHT22;37915;53.254;6.598;2022-10-16T17:01:21;13.20;99.90
51884;DHT22;37915;53.254;6.598;2022-10-16T17:03:49;13.20;99.90
51884;DHT22;37915;53.254;6.598;2022-10-16T17:08:41;13.10;99.90
51884;DHT22;37915;53.254;6.598;2022-10-16T17:11:13;13.00;99.90
51884;DHT22;37915;53.254;6.598;2022-10-16T17:16:05;12.90;99.90
51884;DHT22;37915;53.254;6.598;2022-10-16T17:18:32;12.80;99.90
51884;DHT22;37915;53.254;6.598;2022-10-16T17:21:03;12.80;99.90
51884;DHT22;37915;53.254;6.598;2022-10-16T17:23:29;12.70;99.90
51884;DHT22;37915;53.254;6.598;2022-10-16T17:25:56;12.60;99.90
51884;DHT22;37915;53.254;6.598;2022-10-16T17:28:21;12.60;99.90
51884;DHT22;37915;53.254;6.598;2022-10-16T17:30:47;12.50;99.90
51884;DHT22;37915;53.254;6.598;2022-10-16T17:33:13;12.40;99.90
51884;DHT22;37915;53.254;6.598;2022-10-16T17:35:41;12.40;99.90
51884;DHT22;37915;53.254;6.598;2022-10-16T17:38:08;12.30;99.90